createdAt,value
2023-01-29T00:00:11.920Z,98744.91
2023-01-29T00:02:38.265Z,98750.88
2023-01-29T00:05:20.997Z,98746.56
2023-01-29T00:07:53.096Z,98751.75
2023-01-29T00:10:19.595Z,98752.63
2023-01-29T00:12:45.948Z,98760.34
2023-01-29T00:15:12.945Z,98740.56
2023-01-29T00:17:39.305Z,98743.97
2023-01-29T00:20:06.373Z,98756.78
2023-01-29T00:22:32.761Z,98756.75
2023-01-29T00:24:59.189Z,98770.56
2023-01-29T00:27:25.545Z,98775.75
2023-01-29T00:30:08.832Z,98761.94
2023-01-29T00:32:35.966Z,98737.97
2023-01-29T00:35:02.369Z,98725.88
2023-01-29T00:37:28.750Z,98713.91
2023-01-29T00:39:55.110Z,98710.47
2023-01-29T00:42:40.183Z,98708.72
2023-01-29T00:45:07.105Z,98712.16
2023-01-29T00:47:33.801Z,98713.91
2023-01-29T00:50:05.893Z,98739.78
2023-01-29T00:52:32.264Z,98733.72
2023-01-29T00:55:00.018Z,98749.25
2023-01-29T00:57:27.229Z,98734.59
2023-01-29T00:59:53.669Z,98738.06
2023-01-29T01:02:38.662Z,98731.25
2023-01-29T01:05:13.851Z,98733.00
2023-01-29T01:07:41.191Z,98713.28
2023-01-29T01:10:21.153Z,98703.00
2023-01-29T01:12:58.363Z,98696.06
2023-01-29T01:15:26.249Z,98710.69
2023-01-29T01:17:58.004Z,98697.84
2023-01-29T01:20:28.987Z,98703.00
2023-01-29T01:22:55.492Z,98683.22
2023-01-29T01:25:25.469Z,98679.78
2023-01-29T01:27:55.728Z,98672.94
2023-01-29T01:30:22.136Z,98670.44
2023-01-29T01:32:48.634Z,98666.13
2023-01-29T01:35:15.135Z,98669.63
2023-01-29T01:37:41.616Z,98654.97
2023-01-29T01:40:18.236Z,98659.25
2023-01-29T01:42:51.864Z,98665.31
2023-01-29T01:45:29.908Z,98678.19
2023-01-29T01:48:01.535Z,98662.69
2023-01-29T01:50:44.656Z,98668.69
2023-01-29T01:53:16.894Z,98666.13
2023-01-29T01:55:49.485Z,98652.31
2023-01-29T01:58:27.666Z,98657.47
2023-01-29T02:00:54.121Z,98667.78
2023-01-29T02:03:39.159Z,98676.38
2023-01-29T02:06:24.149Z,98660.03
2023-01-29T02:09:24.501Z,98650.53
2023-01-29T02:11:51.436Z,98659.03
2023-01-29T02:14:17.800Z,98666.69
2023-01-29T02:16:44.139Z,98670.03
2023-01-29T02:19:34.009Z,98679.53
2023-01-29T02:22:29.158Z,98690.66
2023-01-29T02:25:33.522Z,98689.75
2023-01-29T02:28:36.854Z,98703.59
2023-01-29T02:31:09.402Z,98714.69
2023-01-29T02:33:48.396Z,98719.88
2023-01-29T02:36:27.205Z,98730.19
2023-01-29T02:39:12.262Z,98715.63
2023-01-29T02:41:54.677Z,98721.63
2023-01-29T02:44:24.699Z,98711.34
2023-01-29T02:46:57.503Z,98716.38
2023-01-29T02:49:34.543Z,98711.25
2023-01-29T02:52:16.751Z,98708.66
2023-01-29T02:55:02.821Z,98722.41
2023-01-29T02:57:31.981Z,98706.88
2023-01-29T03:00:10.396Z,98704.22
2023-01-29T03:02:42.220Z,98710.22
2023-01-29T03:05:12.730Z,98736.03
2023-01-29T03:07:42.692Z,98728.22
2023-01-29T03:10:14.135Z,98723.94
2023-01-29T03:12:40.670Z,98727.34
2023-01-29T03:15:12.002Z,98732.50
2023-01-29T03:17:59.987Z,98735.06
2023-01-29T03:20:32.644Z,98729.00
2023-01-29T03:23:03.925Z,98722.94
2023-01-29T03:25:48.770Z,98716.09
2023-01-29T03:28:35.386Z,98677.50
2023-01-29T03:31:28.256Z,98614.00
2023-01-29T03:34:04.429Z,98559.97
2023-01-29T03:36:45.575Z,98533.50
2023-01-29T03:39:12.359Z,98511.25
2023-01-29T03:41:42.397Z,98503.50
2023-01-29T03:44:18.438Z,98481.19
2023-01-29T03:46:56.828Z,98451.13
2023-01-29T03:49:33.169Z,98421.09
2023-01-29T03:52:38.211Z,98395.47
2023-01-29T03:55:13.168Z,98353.44
2023-01-29T03:57:46.636Z,98328.59
2023-01-29T04:00:17.607Z,98280.47
2023-01-29T04:02:48.517Z,98264.22
2023-01-29T04:05:19.154Z,98243.75
2023-01-29T04:07:45.537Z,98235.28
2023-01-29T04:10:17.271Z,98216.50
2023-01-29T04:13:04.921Z,98194.28
2023-01-29T04:15:33.825Z,98186.59
2023-01-29T04:18:00.169Z,98184.88
2023-01-29T04:20:26.554Z,98174.66
2023-01-29T04:22:53.109Z,98148.13
2023-01-29T04:25:26.491Z,98134.44
2023-01-29T04:28:08.807Z,98129.31
2023-01-29T04:31:00.505Z,98132.69
2023-01-29T04:33:38.406Z,98144.72
2023-01-29T04:36:16.721Z,98161.84
2023-01-29T04:38:47.927Z,98186.78
2023-01-29T04:41:40.498Z,98199.47
2023-01-29T04:44:16.667Z,98224.41
2023-01-29T04:46:58.673Z,98245.91
2023-01-29T04:49:45.197Z,98256.16
2023-01-29T04:52:21.924Z,98266.50
2023-01-29T04:55:08.652Z,98277.69
2023-01-29T04:57:47.811Z,98286.31
2023-01-29T05:00:18.913Z,98292.22
2023-01-29T05:02:45.369Z,98301.66
2023-01-29T05:05:12.567Z,98311.09
2023-01-29T05:07:39.357Z,98310.28
2023-01-29T05:10:06.664Z,98304.28
2023-01-29T05:12:33.020Z,98296.59
2023-01-29T05:15:01.296Z,98305.97
2023-01-29T05:17:27.889Z,98294.00
2023-01-29T05:19:55.464Z,98287.06
2023-01-29T05:22:23.149Z,98294.00
2023-01-29T05:24:50.328Z,98294.84
2023-01-29T05:27:40.095Z,98287.88
2023-01-29T05:30:07.219Z,98287.03
2023-01-29T05:32:33.622Z,98297.38
2023-01-29T05:35:00.053Z,98299.91
2023-01-29T05:37:26.408Z,98302.50
2023-01-29T05:39:52.774Z,98305.13
2023-01-29T05:42:19.391Z,98308.59
2023-01-29T05:44:45.813Z,98311.22
2023-01-29T05:47:12.179Z,98307.03
2023-01-29T05:49:38.934Z,98300.22
2023-01-29T05:52:05.419Z,98270.19
2023-01-29T05:54:31.793Z,98268.47
2023-01-29T05:56:58.181Z,98268.50
2023-01-29T05:59:24.579Z,98265.00
2023-01-29T06:01:50.981Z,98268.31
2023-01-29T06:04:17.430Z,98287.09
2023-01-29T06:06:43.784Z,98293.84
2023-01-29T06:09:11.004Z,98324.78
2023-01-29T06:11:37.670Z,98322.94
2023-01-29T06:14:04.031Z,98336.66
2023-01-29T06:16:30.474Z,98337.44
2023-01-29T06:18:56.971Z,98345.06
2023-01-29T06:21:23.347Z,98338.16
2023-01-29T06:23:52.501Z,98341.59
2023-01-29T06:26:19.141Z,98338.19
2023-01-29T06:28:50.388Z,98331.31
2023-01-29T06:31:35.236Z,98331.31
2023-01-29T06:34:03.982Z,98326.91
2023-01-29T06:36:30.422Z,98341.47
2023-01-29T06:38:56.778Z,98331.13
2023-01-29T06:41:25.793Z,98342.25
2023-01-29T06:43:52.307Z,98366.28
2023-01-29T06:46:18.655Z,98375.69
2023-01-29T06:48:45.201Z,98384.22
2023-01-29T06:51:11.627Z,98397.00
2023-01-29T06:53:38.567Z,98433.94
2023-01-29T06:56:05.830Z,98456.16
2023-01-29T06:58:32.183Z,98476.78
2023-01-29T07:01:08.955Z,98474.16
2023-01-29T07:03:35.434Z,98485.38
2023-01-29T07:06:01.909Z,98490.41
2023-01-29T07:08:28.678Z,98487.84
2023-01-29T07:11:01.121Z,98487.81
2023-01-29T07:13:27.571Z,98500.63
2023-01-29T07:15:54.154Z,98510.91
2023-01-29T07:18:20.501Z,98539.25
2023-01-29T07:20:46.826Z,98548.63
2023-01-29T07:23:13.502Z,98565.00
2023-01-29T07:25:40.439Z,98544.31
2023-01-29T07:28:07.061Z,98539.13
2023-01-29T07:30:33.697Z,98555.44
2023-01-29T07:33:08.072Z,98554.59
2023-01-29T07:35:42.418Z,98536.59
2023-01-29T07:38:09.445Z,98550.28
2023-01-29T07:40:35.934Z,98531.41
2023-01-29T07:43:03.940Z,98524.50
2023-01-29T07:45:30.637Z,98539.06
2023-01-29T07:47:57.169Z,98564.84
2023-01-29T07:50:23.982Z,98554.50
2023-01-29T07:52:50.408Z,98572.47
2023-01-29T07:55:17.069Z,98589.63
2023-01-29T07:57:44.175Z,98579.25
2023-01-29T08:00:11.675Z,98587.88
2023-01-29T08:02:38.053Z,98564.63
2023-01-29T08:05:04.991Z,98568.88
2023-01-29T08:07:31.349Z,98580.84
2023-01-29T08:09:57.704Z,98565.34
2023-01-29T08:12:24.091Z,98579.09
2023-01-29T08:14:50.454Z,98574.84
2023-01-29T08:17:16.826Z,98584.25
2023-01-29T08:19:43.400Z,98578.25
2023-01-29T08:22:09.892Z,98571.31
2023-01-29T08:24:47.905Z,98560.13
2023-01-29T08:27:20.704Z,98565.44
2023-01-29T08:29:47.155Z,98563.63
2023-01-29T08:32:13.482Z,98581.69
2023-01-29T08:34:39.930Z,98579.94
2023-01-29T08:37:06.281Z,98586.06
2023-01-29T08:39:33.744Z,98591.16
2023-01-29T08:42:01.004Z,98589.47
2023-01-29T08:44:27.424Z,98586.84
2023-01-29T08:46:53.763Z,98567.88
2023-01-29T08:49:20.323Z,98573.19
2023-01-29T08:51:46.669Z,98581.75
2023-01-29T08:54:13.035Z,98569.69
2023-01-29T08:56:39.400Z,98563.63
2023-01-29T08:59:05.750Z,98556.81
2023-01-29T09:01:32.193Z,98527.50
2023-01-29T09:03:58.791Z,98517.09
2023-01-29T09:06:25.227Z,98502.50
2023-01-29T09:08:51.568Z,98493.13
2023-01-29T09:11:18.047Z,98439.84
2023-01-29T09:13:44.509Z,98380.59
2023-01-29T09:16:10.938Z,98323.06
2023-01-29T09:18:37.343Z,98273.28
2023-01-29T09:21:04.427Z,98256.31
2023-01-29T09:23:30.911Z,98197.75
2023-01-29T09:25:57.358Z,98168.41
2023-01-29T09:28:23.823Z,98158.88
2023-01-29T09:30:50.282Z,98166.56
2023-01-29T09:33:16.962Z,98142.41
2023-01-29T09:35:43.505Z,98145.72
2023-01-29T09:38:10.333Z,98133.53
2023-01-29T09:40:50.682Z,98154.09
2023-01-29T09:43:19.333Z,98166.16
2023-01-29T09:45:52.625Z,98164.28
2023-01-29T09:48:19.002Z,98185.00
2023-01-29T09:50:47.300Z,98184.91
2023-01-29T09:53:13.795Z,98202.31
2023-01-29T09:55:49.686Z,98166.00
2023-01-29T09:58:20.899Z,98166.03
2023-01-29T10:01:06.202Z,98160.69
2023-01-29T10:03:41.987Z,98179.69
2023-01-29T10:06:39.855Z,98186.38
2023-01-29T10:09:34.416Z,98174.22
2023-01-29T10:12:19.645Z,98180.94
2023-01-29T10:14:58.470Z,98188.63
2023-01-29T10:17:58.892Z,98192.88
2023-01-29T10:20:37.704Z,98215.13
2023-01-29T10:23:04.083Z,98245.97
2023-01-29T10:25:30.437Z,98269.09
2023-01-29T10:27:58.160Z,98300.06
2023-01-29T10:30:40.637Z,98330.16
2023-01-29T10:33:12.386Z,98333.44
2023-01-29T10:35:43.764Z,98345.44
2023-01-29T10:38:24.519Z,98330.66
2023-01-29T10:41:11.689Z,98330.59
2023-01-29T10:43:54.943Z,98345.22
2023-01-29T10:46:27.202Z,98353.84
2023-01-29T10:48:56.641Z,98362.31
2023-01-29T10:52:04.596Z,98362.25
2023-01-29T10:55:23.760Z,98353.53
2023-01-29T10:58:36.721Z,98367.41
2023-01-29T11:01:03.260Z,98363.94
2023-01-29T11:03:33.411Z,98358.63
2023-01-29T11:05:59.774Z,98360.22
2023-01-29T11:08:29.135Z,98353.31
2023-01-29T11:11:13.737Z,98368.72
2023-01-29T11:13:42.879Z,98386.81
2023-01-29T11:16:09.907Z,98364.44
2023-01-29T11:18:56.317Z,98358.28
2023-01-29T11:21:24.355Z,98340.03
2023-01-29T11:23:51.619Z,98349.53
2023-01-29T11:26:22.370Z,98352.88
2023-01-29T11:28:49.880Z,98362.31
2023-01-29T11:31:21.300Z,98342.31
2023-01-29T11:33:47.924Z,98339.66
2023-01-29T11:36:37.997Z,98358.66
2023-01-29T11:39:23.815Z,98343.75
2023-01-29T11:41:52.836Z,98361.88
2023-01-29T11:44:20.567Z,98368.75
2023-01-29T11:46:47.109Z,98391.16
2023-01-29T11:49:31.356Z,98405.69
2023-01-29T11:51:58.768Z,98390.06
2023-01-29T11:54:27.474Z,98398.69
2023-01-29T11:56:54.361Z,98408.03
2023-01-29T11:59:44.195Z,98415.78
2023-01-29T12:02:16.520Z,98429.47
2023-01-29T12:04:42.856Z,98450.06
2023-01-29T12:07:14.861Z,98467.41
2023-01-29T12:09:41.642Z,98455.16
2023-01-29T12:12:27.561Z,98455.16
2023-01-29T12:15:06.473Z,98463.63
2023-01-29T12:17:34.288Z,98479.97
2023-01-29T12:20:04.656Z,98506.72
2023-01-29T12:22:49.401Z,98506.63
2023-01-29T12:25:37.458Z,98516.16
2023-01-29T12:28:16.041Z,98518.59
2023-01-29T12:31:23.427Z,98521.97
2023-01-29T12:34:06.187Z,98530.63
2023-01-29T12:36:41.025Z,98532.28
2023-01-29T12:39:11.023Z,98542.53
2023-01-29T12:41:46.060Z,98559.75
2023-01-29T12:44:14.655Z,98570.09
2023-01-29T12:46:43.682Z,98569.22
2023-01-29T12:49:13.839Z,98576.94
2023-01-29T12:51:46.380Z,98576.88
2023-01-29T12:54:14.909Z,98593.22
2023-01-29T12:56:48.978Z,98586.22
2023-01-29T12:59:17.627Z,98607.81
2023-01-29T13:01:50.699Z,98642.19
2023-01-29T13:04:40.684Z,98661.97
2023-01-29T13:07:13.570Z,98685.19
2023-01-29T13:09:42.280Z,98692.00
2023-01-29T13:12:16.929Z,98723.00
2023-01-29T13:15:17.587Z,98724.72
2023-01-29T13:17:46.246Z,98719.50
2023-01-29T13:20:23.598Z,98724.69
2023-01-29T13:22:50.506Z,98727.22
2023-01-29T13:25:17.974Z,98727.97
2023-01-29T13:27:45.787Z,98713.41
2023-01-29T13:30:33.415Z,98721.16
2023-01-29T13:33:11.118Z,98695.25
2023-01-29T13:35:42.391Z,98707.34
2023-01-29T13:38:38.092Z,98712.44
2023-01-29T13:41:05.412Z,98706.34
2023-01-29T13:43:36.676Z,98693.34
2023-01-29T13:46:11.387Z,98712.34
2023-01-29T13:48:46.612Z,98712.28
2023-01-29T13:51:16.977Z,98705.34
2023-01-29T13:53:43.525Z,98705.44
2023-01-29T13:56:34.375Z,98696.72
2023-01-29T13:59:01.902Z,98713.97
2023-01-29T14:01:46.971Z,98693.25
2023-01-29T14:04:19.340Z,98689.75
2023-01-29T14:06:50.792Z,98694.94
2023-01-29T14:09:33.830Z,98683.69
2023-01-29T14:12:00.462Z,98664.63
2023-01-29T14:14:59.135Z,98691.38
2023-01-29T14:17:25.884Z,98684.44
2023-01-29T14:19:53.611Z,98687.00
2023-01-29T14:22:22.063Z,98679.34
2023-01-29T14:24:48.922Z,98668.09
2023-01-29T14:27:22.762Z,98661.19
2023-01-29T14:29:51.858Z,98651.72
2023-01-29T14:32:19.815Z,98644.81
2023-01-29T14:34:50.423Z,98646.50
2023-01-29T14:37:17.136Z,98627.50
2023-01-29T14:39:51.000Z,98621.50
2023-01-29T14:42:33.078Z,98615.47
2023-01-29T14:45:30.899Z,98612.97
2023-01-29T14:48:01.246Z,98603.34
2023-01-29T14:50:31.830Z,98587.84
2023-01-29T14:53:10.438Z,98603.44
2023-01-29T14:55:44.649Z,98598.28
2023-01-29T14:58:20.336Z,98581.06
2023-01-29T15:00:50.597Z,98586.34
2023-01-29T15:03:32.309Z,98596.75
2023-01-29T15:05:59.410Z,98604.53
2023-01-29T15:08:40.851Z,98603.69
2023-01-29T15:11:27.802Z,98607.25
2023-01-29T15:13:55.999Z,98595.22
2023-01-29T15:16:27.863Z,98584.78
2023-01-29T15:18:56.441Z,98569.44
2023-01-29T15:21:22.793Z,98541.78
2023-01-29T15:23:49.129Z,98510.81
2023-01-29T15:26:19.882Z,98481.59
2023-01-29T15:29:02.192Z,98448.06
2023-01-29T15:31:30.381Z,98404.28
2023-01-29T15:33:56.889Z,98369.81
2023-01-29T15:36:30.046Z,98331.97
2023-01-29T15:39:11.926Z,98315.56
2023-01-29T15:41:38.366Z,98291.44
2023-01-29T15:44:12.761Z,98231.25
2023-01-29T15:46:39.673Z,98199.53
2023-01-29T15:49:07.675Z,98161.66
2023-01-29T15:51:34.138Z,98135.00
2023-01-29T15:54:04.433Z,98126.56
2023-01-29T15:56:51.451Z,98125.78
2023-01-29T15:59:22.502Z,98083.00
2023-01-29T16:01:48.953Z,98024.50
2023-01-29T16:04:19.243Z,97959.16
2023-01-29T16:06:45.593Z,97908.53
2023-01-29T16:09:16.891Z,97837.38
2023-01-29T16:11:43.481Z,97781.66
2023-01-29T16:14:12.531Z,97711.25
2023-01-29T16:16:38.885Z,97624.38
2023-01-29T16:19:20.350Z,97534.94
2023-01-29T16:21:46.970Z,97457.53
2023-01-29T16:24:15.745Z,97390.59
2023-01-29T16:26:46.689Z,97335.47
2023-01-29T16:29:21.715Z,97275.34
2023-01-29T16:31:48.777Z,97233.94
2023-01-29T16:34:25.989Z,97191.78
2023-01-29T16:36:53.539Z,97167.81
2023-01-29T16:39:47.623Z,97130.84
2023-01-29T16:42:17.435Z,97112.03
2023-01-29T16:44:57.369Z,97041.59
2023-01-29T16:47:28.364Z,96970.44
2023-01-29T16:49:56.875Z,96897.44
2023-01-29T16:52:33.831Z,96826.88
2023-01-29T16:55:02.166Z,96801.84
2023-01-29T16:57:31.889Z,96796.75
2023-01-29T17:00:00.589Z,96773.28
2023-01-29T17:02:28.609Z,96781.78
2023-01-29T17:04:57.684Z,96817.91
2023-01-29T17:07:24.272Z,96869.38
2023-01-29T17:09:53.551Z,96912.31
2023-01-29T17:12:21.803Z,96979.22
2023-01-29T17:14:58.505Z,97035.84
2023-01-29T17:17:32.722Z,97099.31
2023-01-29T17:20:03.714Z,97159.59
2023-01-29T17:22:30.071Z,97215.31
2023-01-29T17:24:56.410Z,97272.84
2023-01-29T17:27:22.917Z,97333.00
2023-01-29T17:29:49.440Z,97375.97
2023-01-29T17:32:17.891Z,97428.34
2023-01-29T17:34:46.367Z,97467.06
2023-01-29T17:37:14.180Z,97488.53
2023-01-29T17:39:41.198Z,97524.56
2023-01-29T17:42:10.891Z,97546.94
2023-01-29T17:44:37.218Z,97564.19
2023-01-29T17:47:05.351Z,97567.56
2023-01-29T17:49:35.707Z,97547.75
2023-01-29T17:52:02.052Z,97558.06
2023-01-29T17:54:28.413Z,97552.03
2023-01-29T17:56:55.069Z,97552.91
2023-01-29T17:59:26.269Z,97547.75
2023-01-29T18:01:53.158Z,97537.41
2023-01-29T18:04:19.838Z,97547.88
2023-01-29T18:06:47.779Z,97518.47
2023-01-29T18:09:15.080Z,97526.34
2023-01-29T18:11:42.136Z,97516.75
2023-01-29T18:14:14.156Z,97502.13
2023-01-29T18:16:41.857Z,97496.16
2023-01-29T18:19:22.270Z,97489.28
2023-01-29T18:21:49.281Z,97483.19
2023-01-29T18:24:15.787Z,97471.22
2023-01-29T18:26:42.675Z,97470.28
2023-01-29T18:29:09.085Z,97460.13
2023-01-29T18:31:35.507Z,97441.13
2023-01-29T18:34:01.986Z,97423.81
2023-01-29T18:36:28.382Z,97426.56
2023-01-29T18:38:55.753Z,97405.00
2023-01-29T18:41:22.328Z,97406.59
2023-01-29T18:43:48.860Z,97408.22
2023-01-29T18:46:15.323Z,97394.38
2023-01-29T18:48:42.939Z,97390.91
2023-01-29T18:51:09.510Z,97399.56
2023-01-29T18:53:35.889Z,97390.91
2023-01-29T18:56:04.592Z,97397.88
2023-01-29T18:58:36.164Z,97404.88
2023-01-29T19:01:09.834Z,97413.50
2023-01-29T19:03:36.567Z,97423.06
2023-01-29T19:06:04.046Z,97423.06
2023-01-29T19:08:30.616Z,97433.44
2023-01-29T19:10:57.768Z,97430.69
2023-01-29T19:13:24.557Z,97434.22
2023-01-29T19:15:50.991Z,97423.00
2023-01-29T19:18:17.423Z,97411.81
2023-01-29T19:20:43.830Z,97393.69
2023-01-29T19:23:10.426Z,97379.81
2023-01-29T19:25:39.968Z,97371.22
2023-01-29T19:28:06.543Z,97346.25
2023-01-29T19:30:33.065Z,97311.94
2023-01-29T19:32:59.510Z,97247.47
2023-01-29T19:35:27.215Z,97172.75
2023-01-29T19:37:53.666Z,97078.47
2023-01-29T19:40:20.922Z,96983.78
2023-01-29T19:42:47.890Z,96882.53
2023-01-29T19:45:14.993Z,96792.94
2023-01-29T19:47:42.237Z,96713.72
2023-01-29T19:50:10.091Z,96664.13
2023-01-29T19:52:52.268Z,96588.34
2023-01-29T19:55:20.070Z,96540.41
2023-01-29T19:57:46.806Z,96477.56
2023-01-29T20:00:14.760Z,96416.56
2023-01-29T20:02:41.236Z,96368.38
2023-01-29T20:05:09.923Z,96316.03
2023-01-29T20:07:36.472Z,96290.44
2023-01-29T20:10:03.901Z,96257.00
2023-01-29T20:12:30.421Z,96245.13
2023-01-29T20:14:56.815Z,96215.91
2023-01-29T20:17:23.176Z,96210.66
2023-01-29T20:19:49.547Z,96216.53
2023-01-29T20:22:15.925Z,96226.97
2023-01-29T20:24:42.632Z,96259.66
2023-01-29T20:27:10.191Z,96308.75
2023-01-29T20:29:39.996Z,96341.38
2023-01-29T20:32:07.833Z,96383.50
2023-01-29T20:34:34.938Z,96420.63
2023-01-29T20:37:01.366Z,96436.94
2023-01-29T20:39:27.740Z,96477.38
2023-01-29T20:41:55.091Z,96494.50
2023-01-29T20:44:21.437Z,96515.06
2023-01-29T20:46:47.793Z,96520.47
2023-01-29T20:49:14.323Z,96522.31
2023-01-29T20:51:40.671Z,96539.44
2023-01-29T20:54:08.000Z,96525.47
2023-01-29T20:56:37.097Z,96527.88
2023-01-29T20:59:08.975Z,96527.13
2023-01-29T21:01:35.443Z,96543.34
2023-01-29T21:04:01.886Z,96573.91
2023-01-29T21:06:29.454Z,96597.97
2023-01-29T21:08:55.979Z,96653.03
2023-01-29T21:11:22.311Z,96670.44
2023-01-29T21:13:48.673Z,96710.22
2023-01-29T21:16:15.275Z,96730.84
2023-01-29T21:18:41.663Z,96753.31
2023-01-29T21:21:08.034Z,96758.31
2023-01-29T21:23:34.421Z,96764.38
2023-01-29T21:26:04.621Z,96775.47
2023-01-29T21:28:31.146Z,96785.84
2023-01-29T21:31:10.892Z,96780.91
2023-01-29T21:33:37.435Z,96801.41
2023-01-29T21:36:04.093Z,96811.72
2023-01-29T21:38:30.738Z,96827.97
2023-01-29T21:41:01.146Z,96845.19
2023-01-29T21:43:27.751Z,96844.19
2023-01-29T21:45:58.199Z,96839.78
2023-01-29T21:48:24.939Z,96845.84
2023-01-29T21:50:52.060Z,96859.66
2023-01-29T21:53:18.896Z,96880.31
2023-01-29T21:55:45.825Z,96892.34
2023-01-29T21:58:14.281Z,96876.66
2023-01-29T22:00:40.963Z,96888.63
2023-01-29T22:03:07.324Z,96894.78
2023-01-29T22:05:34.065Z,96893.81
2023-01-29T22:08:00.486Z,96893.81
2023-01-29T22:10:27.586Z,96881.50
2023-01-29T22:12:54.161Z,96862.69
2023-01-29T22:15:22.590Z,96857.53
2023-01-29T22:17:50.002Z,96835.06
2023-01-29T22:20:16.807Z,96824.59
2023-01-29T22:22:43.453Z,96819.09
2023-01-29T22:25:10.027Z,96825.75
2023-01-29T22:27:36.515Z,96820.44
2023-01-29T22:30:04.049Z,96827.13
2023-01-29T22:32:31.856Z,96814.88
2023-01-29T22:34:58.276Z,96809.63
2023-01-29T22:37:24.805Z,96796.47
2023-01-29T22:39:51.167Z,96779.97
2023-01-29T22:42:19.366Z,96772.81
2023-01-29T22:44:45.787Z,96772.50
2023-01-29T22:47:12.262Z,96762.75
2023-01-29T22:49:38.803Z,96770.16
2023-01-29T22:52:11.080Z,96783.63
2023-01-29T22:54:42.040Z,96800.47
2023-01-29T22:57:10.129Z,96833.78
2023-01-29T22:59:36.723Z,96843.13
2023-01-29T23:02:03.112Z,96865.28
2023-01-29T23:04:29.558Z,96906.47
2023-01-29T23:06:55.987Z,96928.78
2023-01-29T23:09:22.449Z,96924.34
2023-01-29T23:11:48.827Z,96956.13
2023-01-29T23:14:15.390Z,96981.81
2023-01-29T23:16:41.739Z,96995.47
2023-01-29T23:19:08.109Z,96996.31
2023-01-29T23:21:34.758Z,97022.06
2023-01-29T23:24:01.318Z,97029.81
2023-01-29T23:26:46.928Z,97011.81
2023-01-29T23:29:13.435Z,96998.91
2023-01-29T23:31:39.841Z,96979.97
2023-01-29T23:34:06.235Z,96965.22
2023-01-29T23:36:32.605Z,96958.31
2023-01-29T23:38:58.941Z,96910.94
2023-01-29T23:41:25.371Z,96898.13
2023-01-29T23:43:52.644Z,96872.28
2023-01-29T23:46:19.084Z,96845.59
2023-01-29T23:48:45.474Z,96821.63
2023-01-29T23:51:11.854Z,96806.13
2023-01-29T23:53:38.659Z,96780.28
2023-01-29T23:56:05.463Z,96772.41
2023-01-29T23:58:32.411Z,96739.66
